sensor_id;sensor_type;location;lat;lon;timestamp;P1;durP1;ratioP1;P2;durP2;ratioP2
36195;SDS011;22237;51.974;4.616;2023-05-07T00:00:05;5.53;;;3.00;;
36195;SDS011;22237;51.974;4.616;2023-05-07T00:02:34;5.88;;;2.63;;
36195;SDS011;22237;51.974;4.616;2023-05-07T00:04:59;5.90;;;2.88;;
36195;SDS011;22237;51.974;4.616;2023-05-07T00:07:24;7.40;;;2.72;;
36195;SDS011;22237;51.974;4.616;2023-05-07T00:09:50;6.75;;;3.58;;
36195;SDS011;22237;51.974;4.616;2023-05-07T00:12:15;7.80;;;3.10;;
36195;SDS011;22237;51.974;4.616;2023-05-07T00:14:40;13.00;;;4.03;;
36195;SDS011;22237;51.974;4.616;2023-05-07T00:17:05;5.65;;;2.90;;
36195;SDS011;22237;51.974;4.616;2023-05-07T00:19:30;3.27;;;2.13;;
36195;SDS011;22237;51.974;4.616;2023-05-07T00:21:56;4.60;;;2.90;;
36195;SDS011;22237;51.974;4.616;2023-05-07T00:24:22;5.25;;;2.90;;
36195;SDS011;22237;51.974;4.616;2023-05-07T00:26:47;7.57;;;2.63;;
36195;SDS011;22237;51.974;4.616;2023-05-07T00:29:12;8.23;;;3.20;;
36195;SDS011;22237;51.974;4.616;2023-05-07T00:31:37;5.67;;;3.00;;
36195;SDS011;22237;51.974;4.616;2023-05-07T00:34:02;8.97;;;3.13;;
36195;SDS011;22237;51.974;4.616;2023-05-07T00:36:28;5.13;;;3.17;;
36195;SDS011;22237;51.974;4.616;2023-05-07T00:38:54;8.07;;;3.28;;
36195;SDS011;22237;51.974;4.616;2023-05-07T00:41:20;4.15;;;2.60;;
36195;SDS011;22237;51.974;4.616;2023-05-07T00:43:45;8.00;;;2.97;;
36195;SDS011;22237;51.974;4.616;2023-05-07T00:46:10;10.97;;;3.27;;
36195;SDS011;22237;51.974;4.616;2023-05-07T00:48:36;8.73;;;3.03;;
36195;SDS011;22237;51.974;4.616;2023-05-07T00:51:01;5.67;;;2.67;;
36195;SDS011;22237;51.974;4.616;2023-05-07T00:53:26;5.23;;;3.40;;
36195;SDS011;22237;51.974;4.616;2023-05-07T00:55:51;7.87;;;3.43;;
36195;SDS011;22237;51.974;4.616;2023-05-07T00:58:17;5.15;;;2.85;;
36195;SDS011;22237;51.974;4.616;2023-05-07T01:00:42;6.20;;;3.05;;
36195;SDS011;22237;51.974;4.616;2023-05-07T01:03:07;6.30;;;3.20;;
36195;SDS011;22237;51.974;4.616;2023-05-07T01:05:33;9.88;;;3.45;;
36195;SDS011;22237;51.974;4.616;2023-05-07T01:07:58;7.15;;;2.83;;
36195;SDS011;22237;51.974;4.616;2023-05-07T01:10:23;6.25;;;3.10;;
36195;SDS011;22237;51.974;4.616;2023-05-07T01:12:49;4.40;;;2.65;;
36195;SDS011;22237;51.974;4.616;2023-05-07T01:15:15;5.70;;;3.30;;
36195;SDS011;22237;51.974;4.616;2023-05-07T01:17:41;4.25;;;3.03;;
36195;SDS011;22237;51.974;4.616;2023-05-07T01:20:07;7.85;;;2.90;;
36195;SDS011;22237;51.974;4.616;2023-05-07T01:22:33;7.82;;;3.40;;
36195;SDS011;22237;51.974;4.616;2023-05-07T01:24:59;5.63;;;2.55;;
36195;SDS011;22237;51.974;4.616;2023-05-07T01:27:26;7.20;;;2.85;;
36195;SDS011;22237;51.974;4.616;2023-05-07T01:29:51;7.20;;;3.65;;
36195;SDS011;22237;51.974;4.616;2023-05-07T01:32:17;10.47;;;3.53;;
36195;SDS011;22237;51.974;4.616;2023-05-07T01:34:43;8.35;;;2.67;;
36195;SDS011;22237;51.974;4.616;2023-05-07T01:37:11;7.57;;;4.03;;
36195;SDS011;22237;51.974;4.616;2023-05-07T01:39:37;11.93;;;3.70;;
36195;SDS011;22237;51.974;4.616;2023-05-07T01:42:03;6.00;;;2.95;;
36195;SDS011;22237;51.974;4.616;2023-05-07T01:44:29;17.52;;;4.00;;
36195;SDS011;22237;51.974;4.616;2023-05-07T01:46:54;6.15;;;3.35;;
36195;SDS011;22237;51.974;4.616;2023-05-07T01:49:20;7.90;;;3.03;;
36195;SDS011;22237;51.974;4.616;2023-05-07T01:51:45;8.70;;;3.60;;
36195;SDS011;22237;51.974;4.616;2023-05-07T01:54:11;8.88;;;3.38;;
36195;SDS011;22237;51.974;4.616;2023-05-07T01:56:36;5.22;;;3.58;;
36195;SDS011;22237;51.974;4.616;2023-05-07T01:59:01;8.90;;;3.20;;
36195;SDS011;22237;51.974;4.616;2023-05-07T02:01:27;7.82;;;3.25;;
36195;SDS011;22237;51.974;4.616;2023-05-07T02:03:52;7.75;;;3.50;;
36195;SDS011;22237;51.974;4.616;2023-05-07T02:06:18;11.27;;;3.92;;
36195;SDS011;22237;51.974;4.616;2023-05-07T02:08:44;8.27;;;3.78;;
36195;SDS011;22237;51.974;4.616;2023-05-07T02:11:09;8.55;;;3.83;;
36195;SDS011;22237;51.974;4.616;2023-05-07T02:13:34;10.98;;;4.10;;
36195;SDS011;22237;51.974;4.616;2023-05-07T02:16:00;7.93;;;4.03;;
36195;SDS011;22237;51.974;4.616;2023-05-07T02:18:25;7.47;;;3.88;;
36195;SDS011;22237;51.974;4.616;2023-05-07T02:20:51;10.80;;;3.88;;
36195;SDS011;22237;51.974;4.616;2023-05-07T02:23:16;10.43;;;3.93;;
36195;SDS011;22237;51.974;4.616;2023-05-07T02:25:41;5.07;;;3.33;;
36195;SDS011;22237;51.974;4.616;2023-05-07T02:28:06;7.50;;;3.67;;
36195;SDS011;22237;51.974;4.616;2023-05-07T02:30:31;5.47;;;3.13;;
36195;SDS011;22237;51.974;4.616;2023-05-07T02:32:57;6.75;;;3.70;;
36195;SDS011;22237;51.974;4.616;2023-05-07T02:35:23;7.93;;;4.15;;
36195;SDS011;22237;51.974;4.616;2023-05-07T02:37:49;6.75;;;3.47;;
36195;SDS011;22237;51.974;4.616;2023-05-07T02:40:14;6.97;;;3.35;;
36195;SDS011;22237;51.974;4.616;2023-05-07T02:42:39;9.17;;;3.73;;
36195;SDS011;22237;51.974;4.616;2023-05-07T02:45:04;6.33;;;3.50;;
36195;SDS011;22237;51.974;4.616;2023-05-07T02:47:30;7.60;;;3.50;;
36195;SDS011;22237;51.974;4.616;2023-05-07T02:49:55;4.00;;;2.67;;
36195;SDS011;22237;51.974;4.616;2023-05-07T02:52:21;7.97;;;2.73;;
36195;SDS011;22237;51.974;4.616;2023-05-07T02:54:46;9.68;;;3.92;;
36195;SDS011;22237;51.974;4.616;2023-05-07T02:57:11;4.00;;;2.77;;
36195;SDS011;22237;51.974;4.616;2023-05-07T02:59:36;8.45;;;3.42;;
36195;SDS011;22237;51.974;4.616;2023-05-07T03:02:01;8.70;;;4.23;;
36195;SDS011;22237;51.974;4.616;2023-05-07T03:04:27;5.57;;;3.20;;
36195;SDS011;22237;51.974;4.616;2023-05-07T03:06:52;5.87;;;3.10;;
36195;SDS011;22237;51.974;4.616;2023-05-07T03:09:17;5.83;;;3.13;;
36195;SDS011;22237;51.974;4.616;2023-05-07T03:11:42;4.97;;;2.88;;
36195;SDS011;22237;51.974;4.616;2023-05-07T03:14:07;6.85;;;3.22;;
36195;SDS011;22237;51.974;4.616;2023-05-07T03:16:33;5.95;;;3.08;;
36195;SDS011;22237;51.974;4.616;2023-05-07T03:18:58;6.00;;;2.97;;
36195;SDS011;22237;51.974;4.616;2023-05-07T03:21:23;6.23;;;3.60;;
36195;SDS011;22237;51.974;4.616;2023-05-07T03:23:48;8.18;;;3.53;;
36195;SDS011;22237;51.974;4.616;2023-05-07T03:26:14;6.47;;;3.23;;
36195;SDS011;22237;51.974;4.616;2023-05-07T03:28:39;6.85;;;3.78;;
36195;SDS011;22237;51.974;4.616;2023-05-07T03:31:04;6.25;;;3.00;;
36195;SDS011;22237;51.974;4.616;2023-05-07T03:33:32;4.60;;;2.50;;
36195;SDS011;22237;51.974;4.616;2023-05-07T03:35:57;7.00;;;3.55;;
36195;SDS011;22237;51.974;4.616;2023-05-07T03:38:23;4.17;;;2.93;;
36195;SDS011;22237;51.974;4.616;2023-05-07T03:40:48;5.47;;;3.08;;
36195;SDS011;22237;51.974;4.616;2023-05-07T03:43:13;5.30;;;3.10;;
36195;SDS011;22237;51.974;4.616;2023-05-07T03:45:38;5.55;;;3.28;;
36195;SDS011;22237;51.974;4.616;2023-05-07T03:48:03;3.50;;;2.63;;
36195;SDS011;22237;51.974;4.616;2023-05-07T03:50:29;9.80;;;3.22;;
36195;SDS011;22237;51.974;4.616;2023-05-07T03:52:54;5.70;;;2.85;;
36195;SDS011;22237;51.974;4.616;2023-05-07T03:55:19;5.07;;;3.00;;
36195;SDS011;22237;51.974;4.616;2023-05-07T03:57:44;6.78;;;3.15;;
36195;SDS011;22237;51.974;4.616;2023-05-07T04:00:10;4.57;;;3.17;;
36195;SDS011;22237;51.974;4.616;2023-05-07T04:02:36;6.15;;;3.50;;
36195;SDS011;22237;51.974;4.616;2023-05-07T04:05:01;5.57;;;3.03;;
36195;SDS011;22237;51.974;4.616;2023-05-07T04:07:26;4.50;;;2.67;;
36195;SDS011;22237;51.974;4.616;2023-05-07T04:09:51;7.23;;;3.33;;
36195;SDS011;22237;51.974;4.616;2023-05-07T04:12:16;6.47;;;3.03;;
36195;SDS011;22237;51.974;4.616;2023-05-07T04:14:42;3.87;;;2.30;;
36195;SDS011;22237;51.974;4.616;2023-05-07T04:17:07;4.00;;;2.70;;
36195;SDS011;22237;51.974;4.616;2023-05-07T04:19:34;3.88;;;2.40;;
36195;SDS011;22237;51.974;4.616;2023-05-07T04:21:59;3.30;;;2.38;;
36195;SDS011;22237;51.974;4.616;2023-05-07T04:24:25;4.10;;;2.47;;
36195;SDS011;22237;51.974;4.616;2023-05-07T04:26:50;2.93;;;2.37;;
36195;SDS011;22237;51.974;4.616;2023-05-07T04:29:16;3.85;;;2.17;;
36195;SDS011;22237;51.974;4.616;2023-05-07T04:31:41;4.63;;;2.63;;
36195;SDS011;22237;51.974;4.616;2023-05-07T04:34:09;3.70;;;2.33;;
36195;SDS011;22237;51.974;4.616;2023-05-07T04:36:34;5.47;;;2.75;;
36195;SDS011;22237;51.974;4.616;2023-05-07T04:38:59;6.20;;;2.55;;
36195;SDS011;22237;51.974;4.616;2023-05-07T04:41:25;3.88;;;2.42;;
36195;SDS011;22237;51.974;4.616;2023-05-07T04:43:50;4.83;;;2.50;;
36195;SDS011;22237;51.974;4.616;2023-05-07T04:46:16;4.60;;;2.90;;
36195;SDS011;22237;51.974;4.616;2023-05-07T04:48:41;4.00;;;2.63;;
36195;SDS011;22237;51.974;4.616;2023-05-07T04:51:06;4.53;;;2.37;;
36195;SDS011;22237;51.974;4.616;2023-05-07T04:53:32;5.65;;;2.97;;
36195;SDS011;22237;51.974;4.616;2023-05-07T04:55:57;3.13;;;2.50;;
36195;SDS011;22237;51.974;4.616;2023-05-07T04:58:23;5.07;;;2.80;;
36195;SDS011;22237;51.974;4.616;2023-05-07T05:00:48;3.35;;;2.55;;
36195;SDS011;22237;51.974;4.616;2023-05-07T05:03:14;4.13;;;2.40;;
36195;SDS011;22237;51.974;4.616;2023-05-07T05:05:39;5.93;;;2.80;;
36195;SDS011;22237;51.974;4.616;2023-05-07T05:08:04;6.88;;;2.67;;
36195;SDS011;22237;51.974;4.616;2023-05-07T05:10:30;4.57;;;2.30;;
36195;SDS011;22237;51.974;4.616;2023-05-07T05:12:55;4.53;;;2.47;;
36195;SDS011;22237;51.974;4.616;2023-05-07T05:15:20;2.67;;;2.40;;
36195;SDS011;22237;51.974;4.616;2023-05-07T05:17:45;6.23;;;3.10;;
36195;SDS011;22237;51.974;4.616;2023-05-07T05:20:10;3.97;;;2.88;;
36195;SDS011;22237;51.974;4.616;2023-05-07T05:22:36;4.35;;;2.80;;
36195;SDS011;22237;51.974;4.616;2023-05-07T05:25:01;2.95;;;2.25;;
36195;SDS011;22237;51.974;4.616;2023-05-07T05:27:27;3.30;;;2.40;;
36195;SDS011;22237;51.974;4.616;2023-05-07T05:29:52;4.00;;;2.67;;
36195;SDS011;22237;51.974;4.616;2023-05-07T05:32:17;6.60;;;3.23;;
36195;SDS011;22237;51.974;4.616;2023-05-07T05:34:43;6.60;;;2.60;;
36195;SDS011;22237;51.974;4.616;2023-05-07T05:37:08;6.32;;;3.20;;
36195;SDS011;22237;51.974;4.616;2023-05-07T05:39:33;5.83;;;2.70;;
36195;SDS011;22237;51.974;4.616;2023-05-07T05:41:58;5.77;;;2.80;;
36195;SDS011;22237;51.974;4.616;2023-05-07T05:44:23;4.50;;;3.00;;
36195;SDS011;22237;51.974;4.616;2023-05-07T05:46:49;5.83;;;2.70;;
36195;SDS011;22237;51.974;4.616;2023-05-07T05:49:20;4.25;;;3.13;;
36195;SDS011;22237;51.974;4.616;2023-05-07T05:51:47;6.07;;;2.97;;
36195;SDS011;22237;51.974;4.616;2023-05-07T05:54:12;4.27;;;2.67;;
36195;SDS011;22237;51.974;4.616;2023-05-07T05:56:37;4.30;;;2.80;;
36195;SDS011;22237;51.974;4.616;2023-05-07T05:59:02;9.63;;;3.00;;
36195;SDS011;22237;51.974;4.616;2023-05-07T06:01:28;6.88;;;3.72;;
36195;SDS011;22237;51.974;4.616;2023-05-07T06:03:53;8.00;;;3.63;;
36195;SDS011;22237;51.974;4.616;2023-05-07T06:06:18;5.00;;;2.93;;
36195;SDS011;22237;51.974;4.616;2023-05-07T06:08:44;8.00;;;3.85;;
36195;SDS011;22237;51.974;4.616;2023-05-07T06:11:09;4.13;;;3.10;;
36195;SDS011;22237;51.974;4.616;2023-05-07T06:13:34;7.75;;;3.50;;
36195;SDS011;22237;51.974;4.616;2023-05-07T06:15:59;5.83;;;3.13;;
36195;SDS011;22237;51.974;4.616;2023-05-07T06:18:25;5.97;;;3.15;;
36195;SDS011;22237;51.974;4.616;2023-05-07T06:20:51;5.78;;;2.58;;
36195;SDS011;22237;51.974;4.616;2023-05-07T06:23:16;6.38;;;3.78;;
36195;SDS011;22237;51.974;4.616;2023-05-07T06:25:41;5.57;;;3.38;;
36195;SDS011;22237;51.974;4.616;2023-05-07T06:28:07;4.87;;;3.27;;
36195;SDS011;22237;51.974;4.616;2023-05-07T06:30:34;5.82;;;3.30;;
36195;SDS011;22237;51.974;4.616;2023-05-07T06:32:59;5.43;;;3.35;;
36195;SDS011;22237;51.974;4.616;2023-05-07T06:35:24;9.30;;;4.00;;
36195;SDS011;22237;51.974;4.616;2023-05-07T06:37:50;7.63;;;3.17;;
36195;SDS011;22237;51.974;4.616;2023-05-07T06:40:15;5.60;;;3.10;;
36195;SDS011;22237;51.974;4.616;2023-05-07T06:42:40;11.40;;;3.70;;
36195;SDS011;22237;51.974;4.616;2023-05-07T06:45:06;7.50;;;3.25;;
36195;SDS011;22237;51.974;4.616;2023-05-07T06:47:31;12.05;;;4.13;;
36195;SDS011;22237;51.974;4.616;2023-05-07T06:49:56;7.67;;;3.70;;
36195;SDS011;22237;51.974;4.616;2023-05-07T06:52:21;9.90;;;3.92;;
36195;SDS011;22237;51.974;4.616;2023-05-07T06:54:47;13.55;;;3.50;;
36195;SDS011;22237;51.974;4.616;2023-05-07T06:57:12;7.22;;;3.85;;
36195;SDS011;22237;51.974;4.616;2023-05-07T06:59:37;7.05;;;3.60;;
36195;SDS011;22237;51.974;4.616;2023-05-07T07:02:02;5.27;;;3.50;;
36195;SDS011;22237;51.974;4.616;2023-05-07T07:04:28;6.68;;;3.80;;
36195;SDS011;22237;51.974;4.616;2023-05-07T07:06:53;13.55;;;3.75;;
36195;SDS011;22237;51.974;4.616;2023-05-07T07:09:19;4.78;;;3.20;;
36195;SDS011;22237;51.974;4.616;2023-05-07T07:11:48;10.15;;;3.58;;
36195;SDS011;22237;51.974;4.616;2023-05-07T07:14:13;6.68;;;3.95;;
36195;SDS011;22237;51.974;4.616;2023-05-07T07:16:39;5.63;;;3.35;;
36195;SDS011;22237;51.974;4.616;2023-05-07T07:19:04;15.00;;;4.93;;
36195;SDS011;22237;51.974;4.616;2023-05-07T07:21:30;8.53;;;3.57;;
36195;SDS011;22237;51.974;4.616;2023-05-07T07:23:55;5.43;;;3.58;;
36195;SDS011;22237;51.974;4.616;2023-05-07T07:26:20;8.77;;;4.20;;
36195;SDS011;22237;51.974;4.616;2023-05-07T07:28:46;9.90;;;4.10;;
36195;SDS011;22237;51.974;4.616;2023-05-07T07:31:11;7.38;;;4.25;;
36195;SDS011;22237;51.974;4.616;2023-05-07T07:33:37;8.25;;;4.60;;
36195;SDS011;22237;51.974;4.616;2023-05-07T07:36:02;12.37;;;4.17;;
36195;SDS011;22237;51.974;4.616;2023-05-07T07:38:27;5.70;;;3.17;;
36195;SDS011;22237;51.974;4.616;2023-05-07T07:40:53;7.30;;;3.80;;
36195;SDS011;22237;51.974;4.616;2023-05-07T07:43:18;7.18;;;4.30;;
36195;SDS011;22237;51.974;4.616;2023-05-07T07:45:43;4.13;;;3.17;;
36195;SDS011;22237;51.974;4.616;2023-05-07T07:48:08;8.40;;;4.13;;
36195;SDS011;22237;51.974;4.616;2023-05-07T07:50:34;9.32;;;3.95;;
36195;SDS011;22237;51.974;4.616;2023-05-07T07:52:59;7.22;;;3.30;;
36195;SDS011;22237;51.974;4.616;2023-05-07T07:55:25;5.70;;;3.45;;
36195;SDS011;22237;51.974;4.616;2023-05-07T07:57:51;6.63;;;3.65;;
36195;SDS011;22237;51.974;4.616;2023-05-07T08:00:16;5.38;;;3.80;;
36195;SDS011;22237;51.974;4.616;2023-05-07T08:02:42;7.90;;;3.10;;
36195;SDS011;22237;51.974;4.616;2023-05-07T08:05:07;6.00;;;2.57;;
36195;SDS011;22237;51.974;4.616;2023-05-07T08:07:32;4.93;;;2.83;;
36195;SDS011;22237;51.974;4.616;2023-05-07T08:09:58;7.45;;;3.50;;
36195;SDS011;22237;51.974;4.616;2023-05-07T08:12:23;6.60;;;3.13;;
36195;SDS011;22237;51.974;4.616;2023-05-07T08:14:48;10.80;;;3.30;;
36195;SDS011;22237;51.974;4.616;2023-05-07T08:17:13;5.80;;;3.40;;
36195;SDS011;22237;51.974;4.616;2023-05-07T08:19:40;6.60;;;3.67;;
36195;SDS011;22237;51.974;4.616;2023-05-07T08:22:06;6.07;;;3.47;;
36195;SDS011;22237;51.974;4.616;2023-05-07T08:24:31;4.77;;;3.47;;
36195;SDS011;22237;51.974;4.616;2023-05-07T08:26:56;5.00;;;3.60;;
36195;SDS011;22237;51.974;4.616;2023-05-07T08:29:21;6.37;;;3.20;;
36195;SDS011;22237;51.974;4.616;2023-05-07T08:31:47;6.22;;;3.47;;
36195;SDS011;22237;51.974;4.616;2023-05-07T08:34:12;9.25;;;4.10;;
36195;SDS011;22237;51.974;4.616;2023-05-07T08:36:37;8.37;;;4.00;;
36195;SDS011;22237;51.974;4.616;2023-05-07T08:39:02;8.17;;;3.40;;
36195;SDS011;22237;51.974;4.616;2023-05-07T08:41:28;5.75;;;3.58;;
36195;SDS011;22237;51.974;4.616;2023-05-07T08:43:53;9.30;;;3.70;;
36195;SDS011;22237;51.974;4.616;2023-05-07T08:46:22;5.60;;;3.58;;
36195;SDS011;22237;51.974;4.616;2023-05-07T08:48:48;4.47;;;3.17;;
36195;SDS011;22237;51.974;4.616;2023-05-07T08:51:14;7.47;;;3.45;;
36195;SDS011;22237;51.974;4.616;2023-05-07T08:53:40;9.20;;;4.15;;
36195;SDS011;22237;51.974;4.616;2023-05-07T08:56:06;4.63;;;3.22;;
36195;SDS011;22237;51.974;4.616;2023-05-07T08:58:33;6.43;;;4.20;;
36195;SDS011;22237;51.974;4.616;2023-05-07T09:00:58;5.33;;;3.43;;
36195;SDS011;22237;51.974;4.616;2023-05-07T09:03:24;8.10;;;4.18;;
36195;SDS011;22237;51.974;4.616;2023-05-07T09:05:49;4.03;;;2.67;;
36195;SDS011;22237;51.974;4.616;2023-05-07T09:08:15;4.07;;;3.00;;
36195;SDS011;22237;51.974;4.616;2023-05-07T09:10:40;8.00;;;3.00;;
36195;SDS011;22237;51.974;4.616;2023-05-07T09:16:12;4.57;;;3.00;;
36195;SDS011;22237;51.974;4.616;2023-05-07T09:18:41;7.78;;;4.05;;
36195;SDS011;22237;51.974;4.616;2023-05-07T09:21:09;5.40;;;3.45;;
36195;SDS011;22237;51.974;4.616;2023-05-07T09:23:34;5.60;;;3.17;;
36195;SDS011;22237;51.974;4.616;2023-05-07T09:26:00;7.23;;;2.90;;
36195;SDS011;22237;51.974;4.616;2023-05-07T09:28:25;2.88;;;2.45;;
36195;SDS011;22237;51.974;4.616;2023-05-07T09:30:50;4.75;;;3.05;;
36195;SDS011;22237;51.974;4.616;2023-05-07T09:33:16;5.97;;;2.90;;
36195;SDS011;22237;51.974;4.616;2023-05-07T09:35:42;3.47;;;2.25;;
36195;SDS011;22237;51.974;4.616;2023-05-07T09:38:07;3.50;;;2.43;;
36195;SDS011;22237;51.974;4.616;2023-05-07T09:40:35;3.65;;;2.30;;
36195;SDS011;22237;51.974;4.616;2023-05-07T09:43:10;4.15;;;2.70;;
36195;SDS011;22237;51.974;4.616;2023-05-07T09:45:36;3.92;;;2.55;;
36195;SDS011;22237;51.974;4.616;2023-05-07T09:48:02;3.13;;;2.30;;
36195;SDS011;22237;51.974;4.616;2023-05-07T09:50:29;3.13;;;2.25;;
36195;SDS011;22237;51.974;4.616;2023-05-07T09:52:55;4.28;;;2.55;;
36195;SDS011;22237;51.974;4.616;2023-05-07T09:55:21;4.00;;;3.13;;
36195;SDS011;22237;51.974;4.616;2023-05-07T09:57:48;4.15;;;3.15;;
36195;SDS011;22237;51.974;4.616;2023-05-07T10:00:15;4.95;;;2.88;;
36195;SDS011;22237;51.974;4.616;2023-05-07T10:02:42;8.80;;;3.45;;
36195;SDS011;22237;51.974;4.616;2023-05-07T10:05:13;4.35;;;2.33;;
36195;SDS011;22237;51.974;4.616;2023-05-07T10:07:39;3.97;;;2.97;;
36195;SDS011;22237;51.974;4.616;2023-05-07T10:10:08;6.82;;;2.35;;
36195;SDS011;22237;51.974;4.616;2023-05-07T10:12:33;6.70;;;3.42;;
36195;SDS011;22237;51.974;4.616;2023-05-07T10:15:05;4.95;;;2.85;;
36195;SDS011;22237;51.974;4.616;2023-05-07T10:17:30;6.50;;;3.03;;
36195;SDS011;22237;51.974;4.616;2023-05-07T10:19:59;5.45;;;2.83;;
36195;SDS011;22237;51.974;4.616;2023-05-07T10:22:24;3.37;;;2.43;;
36195;SDS011;22237;51.974;4.616;2023-05-07T10:24:52;3.53;;;2.45;;
36195;SDS011;22237;51.974;4.616;2023-05-07T10:27:18;3.92;;;2.70;;
36195;SDS011;22237;51.974;4.616;2023-05-07T10:34:40;4.10;;;2.23;;
36195;SDS011;22237;51.974;4.616;2023-05-07T10:37:07;3.38;;;2.17;;
36195;SDS011;22237;51.974;4.616;2023-05-07T10:39:32;2.03;;;1.65;;
36195;SDS011;22237;51.974;4.616;2023-05-07T10:42:07;2.88;;;2.00;;
36195;SDS011;22237;51.974;4.616;2023-05-07T10:44:32;3.13;;;1.60;;
36195;SDS011;22237;51.974;4.616;2023-05-07T10:47:04;2.30;;;1.70;;
36195;SDS011;22237;51.974;4.616;2023-05-07T10:49:30;3.47;;;2.00;;
36195;SDS011;22237;51.974;4.616;2023-05-07T10:52:10;1.97;;;1.57;;
36195;SDS011;22237;51.974;4.616;2023-05-07T10:54:36;4.03;;;1.45;;
36195;SDS011;22237;51.974;4.616;2023-05-07T10:57:26;2.47;;;1.73;;
36195;SDS011;22237;51.974;4.616;2023-05-07T10:59:46;2.17;;;1.65;;
36195;SDS011;22237;51.974;4.616;2023-05-07T11:02:11;3.03;;;1.93;;
36195;SDS011;22237;51.974;4.616;2023-05-07T11:04:39;4.85;;;2.10;;
36195;SDS011;22237;51.974;4.616;2023-05-07T11:12:16;2.05;;;1.42;;
36195;SDS011;22237;51.974;4.616;2023-05-07T11:17:11;7.60;;;1.75;;
36195;SDS011;22237;51.974;4.616;2023-05-07T11:19:57;3.42;;;1.75;;
36195;SDS011;22237;51.974;4.616;2023-05-07T11:25:01;4.47;;;1.95;;
36195;SDS011;22237;51.974;4.616;2023-05-07T11:27:30;2.75;;;1.80;;
36195;SDS011;22237;51.974;4.616;2023-05-07T11:29:56;2.90;;;1.80;;
36195;SDS011;22237;51.974;4.616;2023-05-07T11:32:24;3.40;;;2.00;;
36195;SDS011;22237;51.974;4.616;2023-05-07T11:34:53;3.30;;;2.00;;
36195;SDS011;22237;51.974;4.616;2023-05-07T11:37:19;3.78;;;1.92;;
36195;SDS011;22237;51.974;4.616;2023-05-07T11:39:44;2.22;;;1.65;;
36195;SDS011;22237;51.974;4.616;2023-05-07T11:44:50;3.63;;;1.77;;
36195;SDS011;22237;51.974;4.616;2023-05-07T11:47:19;3.63;;;2.13;;
36195;SDS011;22237;51.974;4.616;2023-05-07T11:49:51;4.35;;;1.90;;
36195;SDS011;22237;51.974;4.616;2023-05-07T11:52:17;2.55;;;1.98;;
36195;SDS011;22237;51.974;4.616;2023-05-07T11:54:52;1.88;;;1.52;;
36195;SDS011;22237;51.974;4.616;2023-05-07T11:57:23;5.53;;;2.03;;
36195;SDS011;22237;51.974;4.616;2023-05-07T11:59:52;2.55;;;1.60;;
36195;SDS011;22237;51.974;4.616;2023-05-07T12:02:18;3.50;;;2.63;;
36195;SDS011;22237;51.974;4.616;2023-05-07T12:04:43;2.13;;;1.90;;
36195;SDS011;22237;51.974;4.616;2023-05-07T12:07:12;2.78;;;1.88;;
36195;SDS011;22237;51.974;4.616;2023-05-07T12:09:39;2.40;;;2.10;;
36195;SDS011;22237;51.974;4.616;2023-05-07T12:12:04;2.60;;;1.65;;
36195;SDS011;22237;51.974;4.616;2023-05-07T12:14:30;4.35;;;2.33;;
36195;SDS011;22237;51.974;4.616;2023-05-07T12:16:56;2.00;;;1.58;;
36195;SDS011;22237;51.974;4.616;2023-05-07T12:19:22;2.60;;;1.67;;
36195;SDS011;22237;51.974;4.616;2023-05-07T12:21:47;2.67;;;1.80;;
36195;SDS011;22237;51.974;4.616;2023-05-07T12:24:14;4.57;;;2.17;;
36195;SDS011;22237;51.974;4.616;2023-05-07T12:26:39;6.93;;;1.90;;
36195;SDS011;22237;51.974;4.616;2023-05-07T12:29:05;4.18;;;2.00;;
36195;SDS011;22237;51.974;4.616;2023-05-07T12:31:34;2.50;;;2.25;;
36195;SDS011;22237;51.974;4.616;2023-05-07T12:33:59;2.60;;;2.20;;
36195;SDS011;22237;51.974;4.616;2023-05-07T12:36:36;2.70;;;2.08;;
36195;SDS011;22237;51.974;4.616;2023-05-07T12:39:01;3.33;;;1.83;;
36195;SDS011;22237;51.974;4.616;2023-05-07T12:41:26;2.63;;;1.98;;
36195;SDS011;22237;51.974;4.616;2023-05-07T12:43:56;4.55;;;2.08;;
36195;SDS011;22237;51.974;4.616;2023-05-07T12:46:21;3.42;;;2.30;;
36195;SDS011;22237;51.974;4.616;2023-05-07T12:48:48;1.70;;;1.55;;
36195;SDS011;22237;51.974;4.616;2023-05-07T12:51:13;2.63;;;1.80;;
36195;SDS011;22237;51.974;4.616;2023-05-07T12:53:40;4.78;;;2.20;;
36195;SDS011;22237;51.974;4.616;2023-05-07T12:56:11;2.85;;;1.77;;
36195;SDS011;22237;51.974;4.616;2023-05-07T12:58:36;2.97;;;2.45;;
36195;SDS011;22237;51.974;4.616;2023-05-07T13:01:06;3.35;;;2.00;;
36195;SDS011;22237;51.974;4.616;2023-05-07T13:03:33;3.33;;;1.95;;
36195;SDS011;22237;51.974;4.616;2023-05-07T13:06:02;7.07;;;1.85;;
36195;SDS011;22237;51.974;4.616;2023-05-07T13:08:31;3.03;;;1.90;;
36195;SDS011;22237;51.974;4.616;2023-05-07T13:10:57;2.42;;;1.67;;
36195;SDS011;22237;51.974;4.616;2023-05-07T13:13:23;2.15;;;1.25;;
36195;SDS011;22237;51.974;4.616;2023-05-07T13:15:51;1.77;;;1.27;;
36195;SDS011;22237;51.974;4.616;2023-05-07T13:18:17;4.28;;;1.58;;
36195;SDS011;22237;51.974;4.616;2023-05-07T13:20:42;3.47;;;2.20;;
36195;SDS011;22237;51.974;4.616;2023-05-07T13:23:07;5.70;;;2.53;;
36195;SDS011;22237;51.974;4.616;2023-05-07T13:25:32;7.87;;;3.37;;
36195;SDS011;22237;51.974;4.616;2023-05-07T13:27:57;2.80;;;1.93;;
36195;SDS011;22237;51.974;4.616;2023-05-07T13:30:23;4.55;;;3.05;;
36195;SDS011;22237;51.974;4.616;2023-05-07T13:32:48;4.35;;;2.60;;
36195;SDS011;22237;51.974;4.616;2023-05-07T13:35:15;2.88;;;2.30;;
36195;SDS011;22237;51.974;4.616;2023-05-07T13:37:41;4.20;;;2.67;;
36195;SDS011;22237;51.974;4.616;2023-05-07T13:40:09;6.85;;;3.13;;
36195;SDS011;22237;51.974;4.616;2023-05-07T13:42:35;9.38;;;3.92;;
36195;SDS011;22237;51.974;4.616;2023-05-07T13:45:02;4.38;;;3.00;;
36195;SDS011;22237;51.974;4.616;2023-05-07T13:47:29;7.40;;;3.70;;
36195;SDS011;22237;51.974;4.616;2023-05-07T13:49:54;2.90;;;2.50;;
36195;SDS011;22237;51.974;4.616;2023-05-07T13:52:19;4.33;;;2.63;;
36195;SDS011;22237;51.974;4.616;2023-05-07T13:54:45;9.65;;;3.88;;
36195;SDS011;22237;51.974;4.616;2023-05-07T13:57:10;9.18;;;3.30;;
36195;SDS011;22237;51.974;4.616;2023-05-07T13:59:35;4.83;;;2.47;;
36195;SDS011;22237;51.974;4.616;2023-05-07T14:02:00;4.30;;;2.77;;
36195;SDS011;22237;51.974;4.616;2023-05-07T14:04:26;3.80;;;2.43;;
36195;SDS011;22237;51.974;4.616;2023-05-07T14:06:51;4.17;;;2.60;;
36195;SDS011;22237;51.974;4.616;2023-05-07T14:09:16;4.33;;;2.80;;
36195;SDS011;22237;51.974;4.616;2023-05-07T14:11:42;6.65;;;4.20;;
36195;SDS011;22237;51.974;4.616;2023-05-07T14:14:07;4.47;;;3.30;;
36195;SDS011;22237;51.974;4.616;2023-05-07T14:16:32;4.37;;;2.80;;
36195;SDS011;22237;51.974;4.616;2023-05-07T14:18:57;3.28;;;2.67;;
36195;SDS011;22237;51.974;4.616;2023-05-07T14:21:23;4.15;;;2.70;;
36195;SDS011;22237;51.974;4.616;2023-05-07T14:23:48;3.43;;;2.57;;
36195;SDS011;22237;51.974;4.616;2023-05-07T14:26:13;7.03;;;2.27;;
36195;SDS011;22237;51.974;4.616;2023-05-07T14:28:39;4.35;;;3.17;;
36195;SDS011;22237;51.974;4.616;2023-05-07T14:31:04;11.88;;;5.03;;
36195;SDS011;22237;51.974;4.616;2023-05-07T14:33:30;5.32;;;3.50;;
36195;SDS011;22237;51.974;4.616;2023-05-07T14:35:55;7.17;;;3.83;;
36195;SDS011;22237;51.974;4.616;2023-05-07T14:38:20;4.90;;;3.30;;
36195;SDS011;22237;51.974;4.616;2023-05-07T14:40:45;11.20;;;4.97;;
36195;SDS011;22237;51.974;4.616;2023-05-07T14:43:11;5.00;;;2.97;;
36195;SDS011;22237;51.974;4.616;2023-05-07T14:45:36;15.23;;;3.60;;
36195;SDS011;22237;51.974;4.616;2023-05-07T14:48:01;5.37;;;3.23;;
36195;SDS011;22237;51.974;4.616;2023-05-07T14:50:27;8.27;;;3.72;;
36195;SDS011;22237;51.974;4.616;2023-05-07T14:52:52;10.32;;;4.00;;
36195;SDS011;22237;51.974;4.616;2023-05-07T14:55:17;10.73;;;3.63;;
36195;SDS011;22237;51.974;4.616;2023-05-07T14:57:42;5.32;;;3.88;;
36195;SDS011;22237;51.974;4.616;2023-05-07T15:00:09;8.77;;;4.53;;